12 Hour 24 Hour 72 Hour 120 Hour 240 Hour

48 hour History

Graph times and dates are UTC
Temperature/Dew point Wind (MPH)
temperature and dew point graph wind speed and direction graph
 
Barometer (millibars) Rain (inches)
barometer graph rain graph
Hourly/Total since local midnight
Wind Distribution (Past 48 hours)
48 Hour Wind Compass Rose

 

Hourly Observations (past 48 hours)

Date Hour Temperature (°F) Humi-
dity

(%)
Wind
(mph)
Pressure Rain (in) Sun
(W/m2)
UV ET
(in)
Air 6 Hour Dew Alt
(in Hg.)
Sea
Level

(mb)
1 hr 3 hr 6 hr Day Rate
Max Min Day
Feb 17 20:00 30.4 26.4 85 Calm 30.09 1019.1 0.00 0.00 0 0.0 0.000
Feb 17 19:00 30.6 37.5 30.6 25.8 82 ESE 0 G 4 30.13 1020.4 0.00 0.00 0 0.0 0.000
Feb 17 18:00 32.1 23.8 71 ESE 0 G 7 30.16 1021.3 0.00 0.00 0 0.0 0.044
Feb 17 17:00 32.8 20.8 61 E 0 G 2 30.18 1022.2 0.00 0.00 0 0.0 0.044
Feb 17 16:00 32.9 19.3 57 ESE 0 G 6 30.18 1022.1 0.00 0.00 12 0.0 0.044
Feb 17 15:00 34.7 19.3 53 NNE 1 G 8 30.23 1023.7 0.00 0.00 56 0.0 0.043
Feb 17 14:00 36.3 17.0 45 W 2 G 9 30.22 1023.3 0.00 0.00 127 0.0 0.041
Feb 17 13:00 37.5 37.6 24.4 14.8 39 SSW 1 G 8 30.26 1024.8 0.00 0.00 445 0.0 0.037
Feb 17 12:00 37.3 15.7 41 WSW 1 G 7 30.27 1025.3 0.00 0.00 272 0.0 0.032
Feb 17 11:00 34.7 17.0 48 ENE 4 G 10 30.30 1026.0 0.00 0.00 577 0.0 0.026
Feb 17 10:00 32.9 18.1 54 E 1 G 5 30.33 1027.2 0.00 0.00 420 0.0 0.020
Feb 17 09:00 30.1 17.5 59 NNE 2 G 6 30.34 1027.3 0.00 0.00 236 0.0 0.015
Feb 17 08:00 26.1 17.7 70 Calm 30.34 1027.4 0.00 0.00 102 0.0 0.012
Feb 17 07:00 24.5 30.9 24.5 15.1 67 Calm 30.31 1026.3 0.00 0.00 16 0.0 0.011
Feb 17 06:00 25.6 15.5 65 Calm 30.28 1025.5 0.00 0.00 0 0.0 0.011
Feb 17 05:00 26.3 15.8 64 W 0 G 3 30.25 1024.2 0.00 0.00 0 0.0 0.010
Feb 17 04:00 27.5 16.2 62 NW 0 G 2 30.21 1023.2 0.00 0.00 0 0.0 0.009
Feb 17 03:00 28.2 17.2 63 Calm 30.18 1022.2 0.00 0.00 0 0.0 0.008
Feb 17 02:00 29.4 17.6 61 WSW 0 G 2 30.16 1021.5 0.00 0.00 0 0.0 0.007
Feb 17 01:00 30.9 40.6 30.9 18.3 59 Calm 30.13 1020.2 0.00 0.00 0 0.0 0.006
Feb 17 00:00 32.2 18.3 56 SE 0 G 3 30.09 1019.0 0.10 0.00 0 0.0 0.005
Feb 16 23:00 33.7 19.7 56 W 0 G 2 30.04 1017.4 0.00 0.00 0 0.0 0.004
Feb 16 22:00 35.2 21.5 57 W 2 G 5 29.99 1015.6 0.00 0.00 0 0.0 0.003
Feb 16 21:00 36.6 22.4 56 E 2 G 7 29.95 1014.3 0.00 0.00 0 0.0 0.002
Feb 16 20:00 38.8 26.9 62 N 1 G 7 29.89 1012.3 0.00 0.00 0 0.0 0.001
Feb 16 19:00 40.6 53.2 40.6 29.8 65 ESE 0 G 4 29.84 1010.7 0.00 0.00 0 0.0 0.000
Feb 16 18:00 42.8 32.2 66 WSW 1 G 8 29.77 1008.3 0.17 0.00 0 0.0 0.012
Feb 16 17:00 45.2 37.1 73 SW 1 G 5 29.73 1006.6 0.17 0.00 7 0.0 0.012
Feb 16 16:00 47.7 41.2 78 SW 0 G 6 29.68 1005.1 0.17 0.00 23 0.0 0.011
Feb 16 15:00 50.7 44.1 78 WSW 1 G 5 29.64 1003.8 0.17 0.00 25 0.0 0.010
Feb 16 14:00 52.5 48.7 87 NW 0 G 4 29.57 1001.5 0.17 0.00 28 0.0 0.009
Feb 16 13:00 53.2 53.2 51.3 51.8 95 WNW 0 G 2 29.58 1001.8 0.03 0.17 0.00 88 0.0 0.008
Feb 16 12:00 52.6 51.5 96 N 0 G 4 29.57 1001.5 0.17 0.00 125 0.0 0.006
Feb 16 11:00 52.2 51.4 97 W 0 G 2 29.57 1001.5 0.17 0.00 113 0.0 0.004
Feb 16 10:00 51.7 50.6 96 SW 0 G 4 29.55 1000.8 0.03 0.17 0.00 91 0.0 0.002
Feb 16 09:00 51.6 50.8 97 Calm 29.54 1000.5 0.02 0.17 0.00 42 0.0 0.001
Feb 16 08:00 51.4 50.3 96 Calm 29.58 1001.8 0.01 0.15 0.00 14 0.0 0.000
Feb 16 07:00 51.9 54.1 51.9 50.8 96 NNE 0 G 3 29.54 1000.3 0.01 0.01 0.06 0.14 0.00 0 0.0 0.000
Feb 16 06:00 53.2 52.1 96 Calm 29.53 1000.0 0.13 0.00 0 0.0 0.000
Feb 16 05:00 53.8 52.7 96 Calm 29.52 999.8 0.13 0.00 0 0.0 0.000
Feb 16 04:00 53.9 52.8 96 Calm 29.52 999.8 0.01 0.05 0.13 0.00 0 0.0 0.000
Feb 16 03:00 53.8 52.4 95 W 0 G 4 29.52 999.9 0.03 0.12 0.00 0 0.0 0.000
Feb 16 02:00 53.6 51.9 94 W 0 G 2 29.54 1000.4 0.01 0.09 0.00 0 0.0 0.000
Feb 16 01:00 53.3 53.8 53.1 51.6 94 W 0 G 2 29.53 1000.0 0.01 0.05 0.08 0.08 0.00 0 0.0 0.000
Feb 16 00:00 53.6 51.6 93 Calm 29.60 1002.5 0.02 0.28 0.00 0 0.0 0.000
Feb 15 23:00 53.2 50.9 92 SW 0 G 1 29.63 1003.3 0.02 0.05 0.00 0 0.0 0.000
Feb 15 22:00 53.2 50.3 90 WSW 0 G 1 29.64 1003.7 0.03 0.03 0.03 0.08 0 0.0 0.000
Feb 15 21:00 53.5 50.3 89 Calm 29.66 1004.5 0.00 0.00 0 0.0 0.000

0.0033